Time;durP1;ratioP1;P1;durP2;ratioP2;P2;SDS_P1;SDS_P2;PMS_P1;PMS_P2;Temp;Humidity;BMP_temperature;BMP_pressure;BME280_temperature;BME280_humidity;BME280_pressure;Samples;Min_cycle;Max_cycle;Signal;HPM_P1;HPM_P2
2021/10/13 00:02:03;;;;;;;11.23;2.80;;;7.10;99.90;;;;;;4838237;29;20186;-84
2021/10/13 00:04:29;;;;;;;9.27;2.95;;;7.10;99.90;;;;;;4853071;29;20080;-85
2021/10/13 00:06:55;;;;;;;12.90;3.20;;;7.10;99.90;;;;;;4837535;29;20128;-86
2021/10/13 00:09:21;;;;;;;15.48;2.63;;;7.10;99.90;;;;;;4850850;29;20605;-83
2021/10/13 00:11:46;;;;;;;9.65;3.05;;;7.10;99.90;;;;;;4845280;29;20505;-85
2021/10/13 00:14:12;;;;;;;10.77;2.83;;;7.10;99.90;;;;;;4851257;29;20052;-86
2021/10/13 00:16:38;;;;;;;10.68;2.45;;;7.00;99.90;;;;;;4840780;29;20128;-86
2021/10/13 00:19:05;;;;;;;16.60;2.97;;;7.00;99.90;;;;;;4836098;29;20051;-86
2021/10/13 00:21:31;;;;;;;8.95;2.88;;;7.10;99.90;;;;;;4858502;29;20041;-86
2021/10/13 00:23:57;;;;;;;8.52;2.72;;;7.10;99.90;;;;;;4851637;29;20053;-85
2021/10/13 00:26:23;;;;;;;8.60;2.78;;;7.10;99.90;;;;;;4844714;29;20285;-86
2021/10/13 00:28:48;;;;;;;12.23;3.03;;;7.10;99.90;;;;;;4837815;29;20044;-85
2021/10/13 00:31:14;;;;;;;10.32;2.55;;;7.10;99.90;;;;;;4848853;29;20140;-86
2021/10/13 00:33:40;;;;;;;8.55;2.53;;;7.10;99.90;;;;;;4835600;29;20072;-84
2021/10/13 00:36:06;;;;;;;11.32;2.72;;;7.10;99.90;;;;;;4842934;29;20040;-84
2021/10/13 00:38:31;;;;;;;12.77;2.90;;;7.10;99.90;;;;;;4837685;29;20500;-85
2021/10/13 00:40:59;;;;;;;9.57;2.70;;;7.10;99.90;;;;;;4851900;29;20493;-86
2021/10/13 00:43:25;;;;;;;12.45;2.65;;;7.10;99.90;;;;;;4841519;29;20040;-86
2021/10/13 00:45:52;;;;;;;9.27;2.47;;;7.10;99.90;;;;;;4840967;29;21261;-86
2021/10/13 00:48:18;;;;;;;11.85;2.50;;;7.10;99.90;;;;;;4828071;29;20681;-86
2021/10/13 00:50:43;;;;;;;11.55;2.88;;;7.20;99.90;;;;;;4854731;29;20117;-85
2021/10/13 00:53:10;;;;;;;10.38;2.75;;;7.20;99.90;;;;;;4853068;29;20049;-86
2021/10/13 00:55:36;;;;;;;15.77;3.10;;;7.20;99.90;;;;;;4860789;29;20087;-84
2021/10/13 00:58:02;;;;;;;8.75;2.22;;;7.20;99.90;;;;;;4867642;29;20074;-85
2021/10/13 01:00:28;;;;;;;14.77;2.70;;;7.30;99.90;;;;;;4849988;29;20171;-85
2021/10/13 01:03:05;;;;;;;13.48;2.72;;;7.30;99.90;;;;;;4849385;29;20131;-85
2021/10/13 01:05:43;;;;;;;15.25;2.80;;;7.30;99.90;;;;;;4846037;29;20704;-83
2021/10/13 01:08:18;;;;;;;9.77;2.72;;;7.30;99.90;;;;;;4871001;29;20211;-86
2021/10/13 01:10:50;;;;;;;12.43;2.50;;;7.30;99.90;;;;;;4869433;29;20109;-85
2021/10/13 01:13:36;;;;;;;16.60;2.70;;;7.40;99.90;;;;;;4853180;29;20087;-84
2021/10/13 01:16:42;;;;;;;13.27;2.95;;;7.40;99.90;;;;;;4862296;29;20065;-83
2021/10/13 01:19:23;;;;;;;21.63;2.53;;;7.50;99.90;;;;;;4852334;29;20041;-82
2021/10/13 01:22:01;;;;;;;11.77;2.53;;;7.40;99.90;;;;;;4873022;29;20037;-84
2021/10/13 01:24:28;;;;;;;9.98;2.55;;;7.50;99.90;;;;;;4849407;29;20041;-82
2021/10/13 01:27:03;;;;;;;13.25;2.88;;;7.50;99.90;;;;;;4857823;29;20044;-84
2021/10/13 01:29:32;;;;;;;9.15;2.35;;;7.50;99.90;;;;;;4849044;29;20088;-82
2021/10/13 01:32:10;;;;;;;12.70;2.85;;;7.50;99.90;;;;;;4847359;29;20504;-86
2021/10/13 01:34:40;;;;;;;11.88;2.88;;;7.50;99.90;;;;;;4855079;29;20045;-86
2021/10/13 01:37:10;;;;;;;12.43;2.72;;;7.50;99.90;;;;;;4843908;29;20532;-83
2021/10/13 01:39:42;;;;;;;8.52;2.40;;;7.50;99.90;;;;;;4856570;29;21661;-86
2021/10/13 01:42:12;;;;;;;7.40;2.80;;;7.50;99.90;;;;;;4877358;29;20040;-86
2021/10/13 01:44:39;;;;;;;17.25;2.30;;;7.50;99.90;;;;;;4874329;29;21090;-86
2021/10/13 01:47:08;;;;;;;15.50;2.95;;;7.50;99.90;;;;;;4855511;29;20041;-82
2021/10/13 01:49:34;;;;;;;7.00;2.63;;;7.50;99.90;;;;;;4849585;29;20036;-85
2021/10/13 01:52:02;;;;;;;14.55;2.35;;;7.50;99.90;;;;;;4837040;29;20608;-84
2021/10/13 01:54:28;;;;;;;7.60;2.42;;;7.50;99.90;;;;;;4861310;29;20128;-83
2021/10/13 01:56:55;;;;;;;14.13;2.45;;;7.50;99.90;;;;;;4870864;29;20036;-84
2021/10/13 01:59:23;;;;;;;10.20;2.35;;;7.50;99.90;;;;;;4848306;29;20081;-86
2021/10/13 02:01:52;;;;;;;8.13;2.40;;;7.50;99.90;;;;;;4862391;29;20073;-87
2021/10/13 02:04:19;;;;;;;10.65;2.50;;;7.50;99.90;;;;;;4844739;29;20732;-83
2021/10/13 02:06:49;;;;;;;10.70;2.80;;;7.40;99.90;;;;;;4831483;29;20175;-85
2021/10/13 02:09:17;;;;;;;16.48;2.10;;;7.50;99.90;;;;;;4858066;29;20762;-85
2021/10/13 02:11:42;;;;;;;11.05;2.55;;;7.50;99.90;;;;;;4832026;29;20498;-87
2021/10/13 02:14:14;;;;;;;7.95;2.70;;;7.40;99.90;;;;;;4837216;29;20938;-84
2021/10/13 02:16:44;;;;;;;12.23;2.45;;;7.50;99.90;;;;;;4862716;29;20584;-85
2021/10/13 02:19:14;;;;;;;12.93;2.45;;;7.50;99.90;;;;;;4879676;29;20594;-85
2021/10/13 02:21:46;;;;;;;9.63;2.20;;;7.50;99.90;;;;;;4880729;29;20112;-85
2021/10/13 02:24:17;;;;;;;19.98;3.08;;;7.40;99.90;;;;;;4870929;29;20051;-85
2021/10/13 02:26:49;;;;;;;10.13;2.30;;;7.40;99.90;;;;;;4865572;29;20540;-85
2021/10/13 02:29:20;;;;;;;11.23;2.30;;;7.40;99.90;;;;;;4870844;29;20073;-85
2021/10/13 02:31:46;;;;;;;7.93;2.35;;;7.40;99.90;;;;;;4859569;29;20193;-84
2021/10/13 02:34:13;;;;;;;12.95;2.33;;;7.40;99.90;;;;;;4852790;29;20049;-84
2021/10/13 02:36:39;;;;;;;9.57;2.10;;;7.40;99.90;;;;;;4851624;29;20300;-85
2021/10/13 02:39:06;;;;;;;11.48;2.22;;;7.40;99.90;;;;;;4838955;29;20044;-86
2021/10/13 02:45:13;;;;;;;10.07;2.60;;;7.40;99.90;;;;;;4877022;29;20048;-85
2021/10/13 02:47:55;;;;;;;9.48;2.17;;;7.50;99.90;;;;;;4839442;29;20041;-85
2021/10/13 02:50:35;;;;;;;9.75;1.90;;;7.50;99.90;;;;;;4857180;29;20040;-84
2021/10/13 02:53:08;;;;;;;9.93;2.05;;;7.50;99.90;;;;;;4856011;29;20069;-85
2021/10/13 02:55:47;;;;;;;7.03;1.90;;;7.40;99.90;;;;;;4852674;29;20036;-84
2021/10/13 02:58:17;;;;;;;15.77;2.00;;;7.50;99.90;;;;;;4869793;29;20036;-85
2021/10/13 03:00:46;;;;;;;7.82;1.98;;;7.40;99.90;;;;;;4856068;29;20125;-84
2021/10/13 03:03:19;;;;;;;13.13;2.20;;;7.40;99.90;;;;;;4837225;29;20540;-84
2021/10/13 03:05:49;;;;;;;11.43;2.38;;;7.50;99.90;;;;;;4865988;29;20407;-84
2021/10/13 03:08:18;;;;;;;10.98;2.42;;;7.50;99.90;;;;;;4851113;29;20051;-84
2021/10/13 03:10:46;;;;;;;12.50;2.40;;;7.50;99.90;;;;;;4858750;29;20503;-85
2021/10/13 03:13:14;;;;;;;8.65;1.88;;;7.40;99.90;;;;;;4857730;29;20041;-84
2021/10/13 03:15:44;;;;;;;7.82;2.17;;;7.40;99.90;;;;;;4851728;29;20040;-85
2021/10/13 03:18:25;;;;;;;7.38;1.92;;;7.40;99.90;;;;;;4854097;29;20059;-85
2021/10/13 03:21:10;;;;;;;7.63;2.10;;;7.40;99.90;;;;;;4862582;29;20523;-85
2021/10/13 03:23:37;;;;;;;14.43;2.38;;;7.40;99.90;;;;;;4866778;29;20041;-85
2021/10/13 03:26:08;;;;;;;9.07;1.92;;;7.40;99.90;;;;;;4860114;29;20120;-85
2021/10/13 03:28:36;;;;;;;14.35;2.85;;;7.40;99.90;;;;;;4868027;29;20048;-84
2021/10/13 03:31:02;;;;;;;13.55;2.22;;;7.30;99.90;;;;;;4858026;29;20137;-84
2021/10/13 03:33:28;;;;;;;10.27;2.35;;;7.30;99.90;;;;;;4851990;29;20522;-85
2021/10/13 03:35:54;;;;;;;10.40;2.15;;;7.30;99.90;;;;;;4843869;29;20540;-85
2021/10/13 03:38:20;;;;;;;15.77;2.63;;;7.30;99.90;;;;;;4872490;29;20085;-86
2021/10/13 03:40:46;;;;;;;7.65;2.22;;;7.30;99.90;;;;;;4844965;29;20610;-85
2021/10/13 03:43:12;;;;;;;15.43;2.40;;;7.30;99.90;;;;;;4847533;29;20476;-84
2021/10/13 03:45:38;;;;;;;9.32;2.63;;;7.30;99.90;;;;;;4854875;29;20054;-85
2021/10/13 03:48:04;;;;;;;10.73;2.67;;;7.30;99.90;;;;;;4851069;29;20041;-84
2021/10/13 03:50:30;;;;;;;9.35;2.40;;;7.30;99.90;;;;;;4835944;29;20081;-84
2021/10/13 03:53:07;;;;;;;10.95;2.47;;;7.40;99.90;;;;;;4835525;29;20488;-84
2021/10/13 03:55:56;;;;;;;12.77;2.50;;;7.40;99.90;;;;;;4862894;29;20517;-84
2021/10/13 03:58:22;;;;;;;11.85;2.17;;;7.40;99.90;;;;;;4845350;29;20555;-86
2021/10/13 04:00:48;;;;;;;14.40;2.80;;;7.40;99.90;;;;;;4853302;29;20037;-86
2021/10/13 04:03:13;;;;;;;14.55;3.08;;;7.40;99.90;;;;;;4850023;29;20041;-85
2021/10/13 04:05:40;;;;;;;8.50;2.20;;;7.50;99.90;;;;;;4820264;29;20036;-85
2021/10/13 04:08:07;;;;;;;8.63;2.72;;;7.50;99.90;;;;;;4844366;29;20540;-84
2021/10/13 04:10:34;;;;;;;7.07;2.35;;;7.50;99.90;;;;;;4852507;29;20254;-84
2021/10/13 04:13:01;;;;;;;8.50;2.50;;;7.50;99.90;;;;;;4853293;29;20411;-84
2021/10/13 04:15:28;;;;;;;11.65;2.90;;;7.60;99.90;;;;;;4836248;29;20037;-85
2021/10/13 04:17:54;;;;;;;18.50;2.63;;;7.50;99.90;;;;;;4860389;29;20464;-85
2021/10/13 04:20:20;;;;;;;9.50;2.00;;;7.60;99.90;;;;;;4847745;29;20785;-84
2021/10/13 04:22:46;;;;;;;14.57;2.72;;;7.60;99.90;;;;;;4854358;29;20056;-85
2021/10/13 04:25:12;;;;;;;8.63;2.15;;;7.60;99.90;;;;;;4850274;29;20557;-84
2021/10/13 04:27:38;;;;;;;14.57;1.95;;;7.70;99.90;;;;;;4850461;29;20044;-85
2021/10/13 04:30:06;;;;;;;9.20;2.20;;;7.70;99.90;;;;;;4827657;29;20132;-84
2021/10/13 04:32:32;;;;;;;8.82;2.15;;;7.80;99.90;;;;;;4850958;29;20040;-86
2021/10/13 04:34:58;;;;;;;7.68;2.00;;;7.80;99.90;;;;;;4838675;29;20048;-85
2021/10/13 04:37:24;;;;;;;10.63;2.03;;;7.80;99.90;;;;;;4834037;29;20519;-85
2021/10/13 04:39:49;;;;;;;14.75;1.75;;;7.90;99.90;;;;;;4854282;29;20238;-84
2021/10/13 04:42:15;;;;;;;14.27;2.13;;;8.00;99.90;;;;;;4869772;29;20579;-84
2021/10/13 04:44:41;;;;;;;12.30;2.00;;;8.00;99.90;;;;;;4841484;29;20366;-85
2021/10/13 04:47:07;;;;;;;8.95;1.80;;;8.10;99.90;;;;;;4851957;29;20485;-85
2021/10/13 04:49:33;;;;;;;10.40;1.77;;;8.20;99.90;;;;;;4861888;29;20460;-85
2021/10/13 04:51:59;;;;;;;8.35;1.55;;;8.20;99.90;;;;;;4857439;29;20572;-85
2021/10/13 04:54:25;;;;;;;10.73;2.00;;;8.30;99.90;;;;;;4844338;29;20187;-84
2021/10/13 04:56:51;;;;;;;7.85;2.10;;;8.30;99.90;;;;;;4828872;29;20053;-85
2021/10/13 04:59:17;;;;;;;13.55;2.38;;;8.30;99.90;;;;;;4826451;29;20076;-85
2021/10/13 05:01:42;;;;;;;6.75;1.73;;;8.40;99.90;;;;;;4810011;29;20090;-84
2021/10/13 05:04:08;;;;;;;13.70;2.15;;;8.40;99.90;;;;;;4866067;29;20041;-85
2021/10/13 05:06:34;;;;;;;8.32;1.58;;;8.50;99.90;;;;;;4857968;29;20085;-84
2021/10/13 05:09:00;;;;;;;5.45;1.58;;;8.50;99.90;;;;;;4849318;29;21003;-87
2021/10/13 05:11:25;;;;;;;7.60;1.92;;;8.50;99.90;;;;;;4838061;29;20044;-85
2021/10/13 05:13:51;;;;;;;7.60;1.70;;;8.50;99.90;;;;;;4842956;29;20068;-84
2021/10/13 05:16:17;;;;;;;11.68;1.67;;;8.50;99.90;;;;;;4853352;29;21560;-84
2021/10/13 05:18:43;;;;;;;9.50;1.77;;;8.60;99.90;;;;;;4840748;29;20133;-85
2021/10/13 05:21:08;;;;;;;8.63;1.50;;;8.60;99.90;;;;;;4852877;29;20127;-83
2021/10/13 05:23:34;;;;;;;5.85;1.38;;;8.70;99.90;;;;;;4850949;29;20053;-84
2021/10/13 05:26:00;;;;;;;9.88;1.63;;;8.70;99.90;;;;;;4835169;29;20068;-84
2021/10/13 05:28:28;;;;;;;10.68;2.25;;;8.80;99.90;;;;;;4846188;29;20728;-84
2021/10/13 05:30:54;;;;;;;7.97;1.75;;;8.80;99.90;;;;;;4824917;29;20045;-84
2021/10/13 05:33:21;;;;;;;10.63;1.70;;;8.80;99.90;;;;;;4840148;29;20221;-84
2021/10/13 05:35:47;;;;;;;10.13;1.58;;;8.80;99.90;;;;;;4842735;29;20052;-84
2021/10/13 05:38:13;;;;;;;4.63;1.55;;;8.80;99.90;;;;;;4827719;29;21955;-84
2021/10/13 05:40:39;;;;;;;8.43;1.70;;;8.80;99.90;;;;;;4841694;29;20064;-85
2021/10/13 05:43:27;;;;;;;6.72;1.60;;;8.80;99.90;;;;;;4848639;29;21219;-85
2021/10/13 05:45:53;;;;;;;11.07;2.00;;;8.70;99.90;;;;;;4838796;29;20037;-84
2021/10/13 05:48:19;;;;;;;10.30;1.85;;;8.70;99.90;;;;;;4808789;29;20072;-84
2021/10/13 05:50:46;;;;;;;10.07;1.73;;;8.70;99.90;;;;;;4842373;29;20045;-85
2021/10/13 05:53:12;;;;;;;8.48;1.67;;;8.70;99.90;;;;;;4857864;29;20041;-85
2021/10/13 05:55:37;;;;;;;13.50;2.08;;;8.70;99.90;;;;;;4852273;29;20415;-84
2021/10/13 05:58:05;;;;;;;11.57;1.58;;;8.70;99.90;;;;;;4868476;29;20036;-84
2021/10/13 06:00:33;;;;;;;10.52;1.70;;;8.60;99.90;;;;;;4879163;29;20040;-84
2021/10/13 06:02:59;;;;;;;8.63;1.52;;;8.60;99.90;;;;;;4879869;29;20595;-84
2021/10/13 06:05:26;;;;;;;12.43;1.80;;;8.60;99.90;;;;;;4866576;29;20045;-84
2021/10/13 06:07:52;;;;;;;5.30;1.60;;;8.60;99.90;;;;;;4860872;29;20049;-84
2021/10/13 06:10:18;;;;;;;7.28;1.70;;;8.50;99.90;;;;;;4854614;29;20331;-84
2021/10/13 06:12:44;;;;;;;13.98;1.70;;;8.50;99.90;;;;;;4860816;29;21007;-84
2021/10/13 06:15:10;;;;;;;6.68;1.80;;;8.50;99.90;;;;;;4871073;29;20049;-84
2021/10/13 06:17:36;;;;;;;9.35;2.15;;;8.50;99.90;;;;;;4866914;29;20040;-84
2021/10/13 06:20:06;;;;;;;8.95;1.80;;;8.50;99.90;;;;;;4853538;29;20102;-86
2021/10/13 06:22:34;;;;;;;9.13;3.22;;;8.50;99.90;;;;;;4858202;29;20045;-84
2021/10/13 06:25:02;;;;;;;10.52;2.10;;;8.50;99.90;;;;;;4846990;29;22196;-85
2021/10/13 06:27:28;;;;;;;10.35;1.85;;;8.40;99.90;;;;;;4834114;29;20179;-85
2021/10/13 06:29:53;;;;;;;8.55;2.00;;;8.50;99.90;;;;;;4871823;29;20125;-85
2021/10/13 06:32:19;;;;;;;8.05;1.60;;;8.40;99.90;;;;;;4869523;29;20048;-85
2021/10/13 06:34:45;;;;;;;9.25;1.98;;;8.50;99.90;;;;;;4869528;29;20045;-85
2021/10/13 06:37:11;;;;;;;8.52;1.60;;;8.40;99.90;;;;;;4869650;29;20053;-85
2021/10/13 06:39:37;;;;;;;7.38;1.77;;;8.40;99.90;;;;;;4855865;29;20171;-85
2021/10/13 06:42:04;;;;;;;8.90;1.75;;;8.40;99.90;;;;;;4851569;29;20400;-85
2021/10/13 06:44:39;;;;;;;8.35;1.88;;;8.40;99.90;;;;;;4867388;29;20056;-84
2021/10/13 06:47:15;;;;;;;;;;;8.40;99.90;;;;;;4866377;29;20056;-85
2021/10/13 06:49:42;;;;;;;11.52;1.60;;;8.40;99.90;;;;;;4865305;29;19983;-84
2021/10/13 06:52:08;;;;;;;5.50;1.50;;;8.40;99.90;;;;;;4846546;29;20119;-85
2021/10/13 06:54:43;;;;;;;12.80;2.60;;;8.50;99.90;;;;;;4858251;29;20044;-85
2021/10/13 06:57:10;;;;;;;10.57;1.65;;;8.50;99.90;;;;;;4849595;29;20055;-85
2021/10/13 06:59:36;;;;;;;7.70;1.92;;;8.50;99.90;;;;;;4853463;29;20247;-84
2021/10/13 07:02:01;;;;;;;11.13;1.63;;;8.50;99.90;;;;;;4833198;29;20131;-85
2021/10/13 07:04:27;;;;;;;10.38;1.80;;;8.50;99.90;;;;;;4848718;29;20048;-85
2021/10/13 07:06:54;;;;;;;8.30;1.75;;;8.50;99.90;;;;;;4844893;29;20049;-85
2021/10/13 07:09:20;;;;;;;10.63;1.80;;;8.50;99.90;;;;;;4843998;29;20041;-85
2021/10/13 07:11:46;;;;;;;6.72;1.70;;;8.60;99.90;;;;;;4853555;29;20040;-85
2021/10/13 07:14:11;;;;;;;7.43;1.70;;;8.60;99.90;;;;;;4849059;29;20607;-85
2021/10/13 07:16:37;;;;;;;11.88;1.58;;;8.60;99.90;;;;;;4852660;29;20527;-85
2021/10/13 07:19:03;;;;;;;6.65;1.50;;;8.50;99.90;;;;;;4856831;29;20053;-85
2021/10/13 07:21:29;;;;;;;9.85;2.50;;;8.60;99.90;;;;;;4875890;29;20033;-85
2021/10/13 07:23:54;;;;;;;10.93;1.63;;;8.60;99.90;;;;;;4846070;29;20057;-85
2021/10/13 07:26:20;;;;;;;8.82;1.50;;;8.60;99.90;;;;;;4806794;29;20184;-85
2021/10/13 07:28:47;;;;;;;10.43;1.60;;;8.60;99.90;;;;;;4837707;29;20052;-85
2021/10/13 07:31:13;;;;;;;20.23;3.50;;;8.60;99.90;;;;;;4843060;29;20044;-86
2021/10/13 07:33:39;;;;;;;10.23;2.03;;;8.60;99.90;;;;;;4831549;29;20096;-85
2021/10/13 07:36:06;;;;;;;8.25;1.50;;;8.70;99.90;;;;;;4821969;29;20159;-86
2021/10/13 07:38:43;;;;;;;10.70;1.45;;;8.70;99.90;;;;;;4857783;29;20056;-85
2021/10/13 07:41:28;;;;;;;6.97;1.83;;;8.70;99.90;;;;;;4851900;29;20080;-87
2021/10/13 07:44:31;;;;;;;8.32;1.60;;;8.80;99.90;;;;;;4864904;29;20036;-85
2021/10/13 07:47:17;;;;;;;8.23;1.58;;;8.80;99.90;;;;;;4848549;29;20053;-85
2021/10/13 07:49:46;;;;;;;4.80;1.63;;;9.00;99.90;;;;;;4868772;29;20121;-86
2021/10/13 07:52:12;;;;;;;11.68;1.92;;;9.00;99.90;;;;;;4852401;29;20049;-85
2021/10/13 07:54:38;;;;;;;9.38;1.80;;;9.10;99.90;;;;;;4856709;29;20401;-86
2021/10/13 07:57:11;;;;;;;8.75;1.58;;;9.20;99.90;;;;;;4822473;29;20502;-86
2021/10/13 08:00:01;;;;;;;5.40;1.42;;;9.30;99.90;;;;;;4859597;29;20048;-86
2021/10/13 08:02:28;;;;;;;7.85;1.98;;;9.40;99.90;;;;;;4865214;29;20049;-85
2021/10/13 08:04:54;;;;;;;6.18;1.65;;;9.50;99.90;;;;;;4832033;29;20037;-87
2021/10/13 08:07:19;;;;;;;12.80;1.95;;;9.60;99.90;;;;;;4838792;29;20096;-87
2021/10/13 08:09:45;;;;;;;10.70;1.73;;;9.70;99.90;;;;;;4852138;29;20493;-88
2021/10/13 08:12:11;;;;;;;6.22;1.45;;;9.70;99.90;;;;;;4872098;29;20048;-87
2021/10/13 08:14:37;;;;;;;7.30;1.10;;;9.80;99.90;;;;;;4856148;29;20052;-83
2021/10/13 08:17:03;;;;;;;12.65;1.65;;;9.90;99.90;;;;;;4846991;29;20064;-86
2021/10/13 08:19:29;;;;;;;7.97;1.30;;;10.00;99.90;;;;;;4874796;29;20492;-87
2021/10/13 08:21:58;;;;;;;6.88;1.30;;;10.10;99.90;;;;;;4857430;29;20053;-87
2021/10/13 08:24:23;;;;;;;5.28;1.42;;;10.20;99.90;;;;;;4864371;29;20108;-86
2021/10/13 08:26:49;;;;;;;6.15;0.98;;;10.20;99.90;;;;;;4861881;29;20044;-85
2021/10/13 08:29:15;;;;;;;5.82;1.45;;;10.30;99.90;;;;;;4858176;29;20754;-85
2021/10/13 08:31:54;;;;;;;7.88;1.38;;;10.40;99.90;;;;;;4870187;29;20076;-88
2021/10/13 08:35:15;;;;;;;9.75;1.60;;;10.50;99.90;;;;;;4875269;29;20053;-87
2021/10/13 08:37:41;;;;;;;14.65;1.40;;;10.50;99.90;;;;;;4862976;29;20048;-86
2021/10/13 08:40:11;;;;;;;9.18;1.23;;;10.60;99.90;;;;;;4851528;29;20075;-87
2021/10/13 08:46:13;;;;;;;10.82;1.50;;;10.80;99.90;;;;;;4856514;29;20044;-86
2021/10/13 08:48:49;;;;;;;4.88;1.17;;;11.00;99.90;;;;;;4865606;29;20570;-84
2021/10/13 08:51:22;;;;;;;8.43;1.13;;;11.10;99.90;;;;;;4886095;29;20577;-84
2021/10/13 08:53:54;;;;;;;10.20;1.45;;;11.20;99.90;;;;;;4848844;29;20032;-88
2021/10/13 08:56:21;;;;;;;3.92;0.90;;;11.20;99.90;;;;;;4845092;29;20047;-85
2021/10/13 08:58:47;;;;;;;5.72;0.95;;;11.30;99.90;;;;;;4849534;29;20426;-85
2021/10/13 09:01:14;;;;;;;10.63;1.80;;;11.30;99.90;;;;;;4832678;29;20041;-86
2021/10/13 09:04:05;;;;;;;13.50;1.98;;;11.30;99.90;;;;;;4868617;29;20101;-85
2021/10/13 09:07:09;;;;;;;8.43;1.10;;;11.40;99.90;;;;;;4872505;29;20116;-85
2021/10/13 09:09:48;;;;;;;5.88;1.38;;;11.50;99.90;;;;;;4872583;29;20041;-88
2021/10/13 09:12:27;;;;;;;8.80;1.33;;;11.50;99.90;;;;;;4862255;29;20059;-83
2021/10/13 09:15:16;;;;;;;3.88;1.10;;;11.60;99.90;;;;;;4861125;29;20048;-87
2021/10/13 09:18:02;;;;;;;4.28;0.90;;;11.60;99.90;;;;;;4860481;29;20131;-87
2021/10/13 09:20:30;;;;;;;9.63;1.10;;;11.80;99.90;;;;;;4859340;29;20051;-88
2021/10/13 09:23:08;;;;;;;5.72;1.08;;;11.80;99.90;;;;;;4859917;29;20053;-85
2021/10/13 09:25:35;;;;;;;6.88;1.10;;;11.90;99.90;;;;;;4863735;29;20041;-87
2021/10/13 09:28:02;;;;;;;7.72;0.90;;;11.90;99.90;;;;;;4869851;29;20749;-85
2021/10/13 09:30:34;;;;;;;6.88;1.10;;;11.90;99.90;;;;;;4856016;29;20703;-85
2021/10/13 09:33:14;;;;;;;9.73;1.63;;;12.00;99.90;;;;;;4869219;29;20851;-85
2021/10/13 09:35:47;;;;;;;4.32;0.98;;;12.00;99.90;;;;;;4854835;29;20744;-82
2021/10/13 09:38:22;;;;;;;5.70;1.10;;;12.00;99.90;;;;;;4861020;29;20045;-86
2021/10/13 09:40:50;;;;;;;5.15;0.93;;;12.00;99.90;;;;;;4859640;29;20669;-83
2021/10/13 09:43:34;;;;;;;4.13;0.95;;;12.00;99.90;;;;;;4850495;29;20085;-87
2021/10/13 09:46:12;;;;;;;8.27;1.40;;;12.00;99.90;;;;;;4840299;29;20048;-84
2021/10/13 09:48:43;;;;;;;5.68;1.05;;;12.00;99.90;;;;;;4862836;29;20543;-90
2021/10/13 09:51:22;;;;;;;10.07;1.45;;;12.00;99.90;;;;;;4875489;29;20111;-85
2021/10/13 09:53:50;;;;;;;3.90;1.00;;;12.10;99.90;;;;;;4863261;29;20450;-83
2021/10/13 09:56:33;;;;;;;8.25;1.15;;;12.20;99.90;;;;;;4868666;29;20044;-87
2021/10/13 09:59:08;;;;;;;5.20;0.93;;;12.20;99.90;;;;;;4867114;29;20040;-85
2021/10/13 10:01:35;;;;;;;5.32;1.20;;;12.30;99.90;;;;;;4870482;29;20289;-86
2021/10/13 10:04:01;;;;;;;7.75;0.93;;;12.40;99.90;;;;;;4864198;29;20055;-87
2021/10/13 10:06:28;;;;;;;5.05;0.90;;;12.40;99.90;;;;;;4850180;29;20383;-85
2021/10/13 10:08:55;;;;;;;7.65;0.90;;;12.50;99.90;;;;;;4863767;29;20128;-85
2021/10/13 10:11:35;;;;;;;4.57;0.98;;;12.40;99.90;;;;;;4863493;29;20185;-84
2021/10/13 10:14:03;;;;;;;6.68;1.15;;;12.40;99.90;;;;;;4883349;29;20048;-85
2021/10/13 10:16:38;;;;;;;3.50;0.90;;;12.40;99.90;;;;;;4868901;29;20041;-85
2021/10/13 10:19:23;;;;;;;3.58;0.57;;;12.40;99.90;;;;;;4868179;29;20079;-87
2021/10/13 10:22:12;;;;;;;7.03;0.95;;;12.40;99.90;;;;;;4876074;29;20766;-84
2021/10/13 10:24:48;;;;;;;7.05;1.02;;;12.50;99.90;;;;;;4877925;29;20041;-87
2021/10/13 10:27:23;;;;;;;3.25;0.65;;;12.60;99.90;;;;;;4872424;29;20466;-87
2021/10/13 10:29:59;;;;;;;4.70;1.00;;;12.70;99.90;;;;;;4857641;29;20041;-87
2021/10/13 10:32:25;;;;;;;6.78;1.00;;;12.80;99.90;;;;;;4854075;29;20312;-83
2021/10/13 10:35:38;;;;;;;6.22;1.40;;;12.80;99.90;;;;;;4857979;29;20052;-87
2021/10/13 10:38:12;;;;;;;7.93;0.93;;;12.80;99.90;;;;;;4860829;29;20055;-85
2021/10/13 10:40:39;;;;;;;7.05;1.27;;;12.80;99.90;;;;;;4853855;29;20037;-85
2021/10/13 10:43:23;;;;;;;6.82;0.70;;;12.80;99.90;;;;;;4861512;29;20274;-85
2021/10/13 10:45:59;;;;;;;3.90;0.80;;;12.70;99.90;;;;;;4879284;29;20282;-86
2021/10/13 10:48:47;;;;;;;3.63;0.80;;;12.70;99.90;;;;;;4859952;29;20044;-86
2021/10/13 10:51:13;;;;;;;4.07;0.88;;;12.80;99.90;;;;;;4858354;29;20051;-88
2021/10/13 10:53:52;;;;;;;4.40;0.68;;;12.80;99.90;;;;;;4874348;29;20040;-87
2021/10/13 10:56:30;;;;;;;9.10;1.05;;;12.90;99.90;;;;;;4863316;29;20116;-88
2021/10/13 10:59:10;;;;;;;7.78;1.13;;;13.00;99.90;;;;;;4875873;29;20049;-85
2021/10/13 11:01:37;;;;;;;8.85;1.25;;;13.00;99.90;;;;;;4883677;29;20415;-84
2021/10/13 11:04:11;;;;;;;3.95;0.68;;;13.10;99.90;;;;;;4867854;29;20033;-85
2021/10/13 11:06:39;;;;;;;4.18;0.80;;;13.10;99.90;;;;;;4858705;29;20563;-87
2021/10/13 11:09:10;;;;;;;2.97;0.65;;;13.00;99.90;;;;;;4863244;29;20044;-85
2021/10/13 11:11:41;;;;;;;4.60;0.60;;;13.00;99.90;;;;;;4863482;29;20653;-85
2021/10/13 11:14:13;;;;;;;3.20;0.80;;;12.80;99.90;;;;;;4871700;29;20064;-83
2021/10/13 11:17:25;;;;;;;5.10;0.90;;;12.60;99.90;;;;;;4866145;29;20051;-84
2021/10/13 11:20:30;;;;;;;3.87;0.70;;;12.40;99.90;;;;;;4871265;29;20108;-84
2021/10/13 11:23:24;;;;;;;4.05;0.95;;;12.30;99.90;;;;;;4885136;29;20049;-84
2021/10/13 11:25:53;;;;;;;2.58;0.75;;;12.30;99.90;;;;;;4873818;29;20041;-84
2021/10/13 11:28:19;;;;;;;4.15;0.60;;;12.30;99.90;;;;;;4873847;29;20150;-84
2021/10/13 11:30:47;;;;;;;4.07;0.73;;;12.20;99.90;;;;;;4833937;29;20061;-84
2021/10/13 11:33:16;;;;;;;1.85;0.65;;;12.20;99.90;;;;;;4880912;29;20045;-83
2021/10/13 11:35:44;;;;;;;1.55;0.50;;;12.20;99.90;;;;;;4880414;29;20037;-87
2021/10/13 11:38:14;;;;;;;4.47;0.90;;;12.30;99.90;;;;;;4883176;29;20507;-85
2021/10/13 11:40:40;;;;;;;4.22;0.70;;;12.30;99.90;;;;;;4865257;29;20056;-85
2021/10/13 11:43:08;;;;;;;4.97;0.70;;;12.30;99.90;;;;;;4868972;29;20390;-84
2021/10/13 11:45:34;;;;;;;4.18;0.60;;;12.30;99.90;;;;;;4867683;29;20043;-85
2021/10/13 11:48:00;;;;;;;4.47;0.70;;;12.40;99.90;;;;;;4867561;29;20419;-84
2021/10/13 11:50:30;;;;;;;5.80;0.70;;;12.40;99.90;;;;;;4869906;29;20103;-84
2021/10/13 11:52:58;;;;;;;3.65;0.80;;;12.40;99.90;;;;;;4888851;29;20075;-85
2021/10/13 11:55:29;;;;;;;4.80;0.80;;;12.50;99.90;;;;;;4879588;29;20037;-84
2021/10/13 11:57:58;;;;;;;3.17;0.55;;;12.50;99.90;;;;;;4880892;29;21741;-84
2021/10/13 12:00:30;;;;;;;2.63;0.90;;;12.60;99.90;;;;;;4883972;29;20044;-86
2021/10/13 12:02:59;;;;;;;3.40;0.80;;;12.70;99.90;;;;;;4877156;29;20065;-86
2021/10/13 12:05:33;;;;;;;8.25;1.17;;;12.90;99.90;;;;;;4883873;29;20108;-87
2021/10/13 12:08:13;;;;;;;4.88;0.90;;;13.00;99.90;;;;;;4883170;29;20068;-86
2021/10/13 12:10:53;;;;;;;4.90;0.90;;;13.10;99.90;;;;;;4871484;29;20037;-85
2021/10/13 12:13:28;;;;;;;4.57;0.75;;;13.20;99.90;;;;;;4882367;29;20041;-86
2021/10/13 12:16:06;;;;;;;7.45;0.80;;;13.30;99.90;;;;;;4893300;29;20092;-86
2021/10/13 12:18:45;;;;;;;4.57;0.95;;;13.40;99.90;;;;;;4877977;29;20051;-85
2021/10/13 12:21:52;;;;;;;4.47;0.70;;;13.40;99.90;;;;;;4867507;29;20045;-85
2021/10/13 12:24:35;;;;;;;5.50;0.75;;;13.40;99.90;;;;;;4868546;29;20053;-84
2021/10/13 12:27:11;;;;;;;5.10;0.80;;;13.40;99.90;;;;;;4832757;29;20049;-85
2021/10/13 12:29:56;;;;;;;2.85;0.60;;;13.40;99.90;;;;;;4863140;29;20044;-84
2021/10/13 12:32:24;;;;;;;6.63;1.00;;;13.30;99.90;;;;;;4866816;29;20554;-86
2021/10/13 12:34:51;;;;;;;3.45;0.60;;;13.30;99.90;;;;;;4862365;29;20523;-86
2021/10/13 12:37:17;;;;;;;7.75;0.80;;;13.30;99.90;;;;;;4854636;29;20041;-84
2021/10/13 12:39:43;;;;;;;4.63;0.60;;;13.30;99.90;;;;;;4858635;29;20045;-84
2021/10/13 12:42:11;;;;;;;6.30;1.17;;;13.20;99.90;;;;;;4870850;29;20385;-84
2021/10/13 12:44:39;;;;;;;3.90;0.60;;;13.20;99.90;;;;;;4869810;29;20044;-84
2021/10/13 12:47:08;;;;;;;3.33;0.63;;;13.20;99.90;;;;;;4868102;29;20049;-84
2021/10/13 12:49:39;;;;;;;2.25;0.50;;;13.20;99.90;;;;;;4884108;29;20156;-85
2021/10/13 12:52:11;;;;;;;6.03;0.80;;;13.10;99.90;;;;;;4869340;29;20048;-85
2021/10/13 12:54:42;;;;;;;1.70;0.70;;;13.10;99.90;;;;;;4876145;29;20100;-84
2021/10/13 12:57:21;;;;;;;5.07;0.82;;;13.00;99.90;;;;;;4861591;29;20047;-86
2021/10/13 12:59:48;;;;;;;7.50;0.90;;;13.00;99.90;;;;;;4857236;29;20056;-86
2021/10/13 13:02:15;;;;;;;3.65;0.90;;;13.00;99.90;;;;;;4860602;29;20041;-85
2021/10/13 13:04:40;;;;;;;6.47;0.80;;;13.00;99.90;;;;;;4841883;29;20503;-85
2021/10/13 13:07:08;;;;;;;3.83;0.80;;;13.00;99.90;;;;;;4832441;29;20456;-85
2021/10/13 13:09:35;;;;;;;4.22;1.00;;;13.00;99.90;;;;;;4877140;29;20044;-85
2021/10/13 13:12:01;;;;;;;2.83;1.10;;;13.10;99.90;;;;;;4896688;29;20044;-85
2021/10/13 13:14:26;;;;;;;8.00;0.93;;;13.10;99.90;;;;;;4867532;29;20048;-85
2021/10/13 13:16:52;;;;;;;3.88;0.88;;;13.10;99.90;;;;;;4859314;29;20132;-84